Time;durP1;ratioP1;P1;durP2;ratioP2;P2;SDS_P1;SDS_P2;PMS_P1;PMS_P2;Temp;Humidity;BMP_temperature;BMP_pressure;BME280_temperature;BME280_humidity;BME280_pressure;Samples;Min_cycle;Max_cycle;Signal;HPM_P1;HPM_P2
2023/08/29 00:00:33;;;;;;;2.30;2.07;;;;;;;14.38;100.00;97538.38;5073309;28;20210;-85
2023/08/29 00:03:03;;;;;;;2.30;2.10;;;;;;;14.33;100.00;97541.47;5073061;28;20217;-83
2023/08/29 00:05:30;;;;;;;2.83;2.10;;;;;;;14.38;100.00;97549.84;5073405;28;20254;-85
2023/08/29 00:07:58;;;;;;;2.43;2.10;;;;;;;14.42;100.00;97539.78;5073326;28;20205;-84
2023/08/29 00:10:24;;;;;;;2.37;2.17;;;;;;;14.44;100.00;97532.47;5073375;28;20203;-84
2023/08/29 00:12:51;;;;;;;3.10;2.17;;;;;;;14.44;100.00;97532.47;5073073;28;20214;-83
2023/08/29 00:15:17;;;;;;;3.23;2.13;;;;;;;14.44;100.00;97532.47;5073233;28;20241;-83
2023/08/29 00:17:44;;;;;;;2.60;2.40;;;;;;;14.40;100.00;97531.06;5072947;28;20234;-84
2023/08/29 00:20:11;;;;;;;4.73;2.30;;;;;;;14.34;100.00;97536.97;5072741;28;20210;-82
2023/08/29 00:22:38;;;;;;;2.23;2.03;;;;;;;14.29;100.00;97534.75;5073229;28;20597;-83
2023/08/29 00:25:06;;;;;;;2.50;2.30;;;;;;;14.35;100.00;97544.00;5072979;28;20230;-84
2023/08/29 00:27:33;;;;;;;2.47;2.20;;;;;;;14.27;100.00;97535.88;5072861;28;20664;-83
2023/08/29 00:29:59;;;;;;;3.23;2.77;;;;;;;14.24;100.00;97531.66;5072672;28;20229;-82
2023/08/29 00:32:26;;;;;;;3.60;2.37;;;;;;;14.23;100.00;97523.88;5072677;28;20213;-83
2023/08/29 00:34:52;;;;;;;3.27;2.70;;;;;;;14.25;100.00;97522.72;5072623;28;20604;-84
2023/08/29 00:37:19;;;;;;;2.90;2.60;;;;;;;14.25;100.00;97527.22;5072892;28;20213;-83
2023/08/29 00:39:45;;;;;;;2.70;2.50;;;;;;;14.29;100.00;97539.25;5072221;28;20230;-83
2023/08/29 00:42:13;;;;;;;3.00;2.47;;;;;;;14.26;100.00;97544.81;5072730;28;20214;-84
2023/08/29 00:44:39;;;;;;;3.97;2.40;;;;;;;14.27;100.00;97542.03;5072633;28;20237;-83
2023/08/29 00:47:06;;;;;;;3.83;2.73;;;;;;;14.31;100.00;97545.25;5072882;28;20211;-83
2023/08/29 00:49:33;;;;;;;2.90;2.60;;;;;;;14.27;100.00;97543.84;5072260;28;20204;-82
2023/08/29 00:52:02;;;;;;;3.23;2.93;;;;;;;14.32;100.00;97544.25;5072843;28;20746;-80
2023/08/29 00:54:29;;;;;;;3.10;2.43;;;;;;;14.32;100.00;97547.75;5072755;28;20237;-83
2023/08/29 00:56:56;;;;;;;3.10;2.80;;;;;;;14.34;100.00;97550.25;5073055;28;20204;-83
2023/08/29 00:59:23;;;;;;;3.63;2.67;;;;;;;14.32;100.00;97544.25;5070862;28;20237;-84
2023/08/29 01:01:50;;;;;;;4.70;2.60;;;;;;;14.34;100.00;97542.28;5072093;28;20209;-83
2023/08/29 01:04:17;;;;;;;3.30;2.60;;;;;;;14.35;100.00;97541.31;5072029;28;20231;-82
2023/08/29 01:06:43;;;;;;;3.47;2.77;;;;;;;14.25;100.00;97543.97;5072525;28;20577;-83
2023/08/29 01:09:10;;;;;;;3.80;2.67;;;;;;;14.30;100.00;97546.22;5071999;28;20215;-82
2023/08/29 01:11:45;;;;;;;3.30;2.60;;;;;;;14.28;100.00;97540.19;5072207;28;20213;-83
2023/08/29 01:14:21;;;;;;;2.53;2.33;;;;;;;14.24;100.00;97530.84;5071994;28;20734;-83
2023/08/29 01:16:57;;;;;;;3.53;2.53;;;;;;;14.20;100.00;97532.09;5072054;28;20210;-83
2023/08/29 01:19:24;;;;;;;2.80;2.50;;;;;;;14.19;100.00;97533.09;5071560;28;20229;-83
2023/08/29 01:22:07;;;;;;;3.37;2.67;;;;;;;14.18;100.00;97536.72;5071845;28;20715;-83
2023/08/29 01:24:45;;;;;;;3.33;2.60;;;;;;;14.20;100.00;97540.09;5072029;28;20239;-83
2023/08/29 01:27:13;;;;;;;3.00;2.70;;;;;;;14.13;100.00;97538.94;5071626;28;20827;-83
2023/08/29 01:29:40;;;;;;;3.20;2.80;;;;;;;14.15;100.00;97542.28;5071408;28;20211;-83
2023/08/29 01:32:07;;;;;;;3.07;2.77;;;;;;;14.15;100.00;97537.81;5071465;28;20220;-83
2023/08/29 01:34:34;;;;;;;3.20;2.90;;;;;;;14.16;100.00;97541.31;5071362;28;20290;-83
2023/08/29 01:37:00;;;;;;;4.73;2.90;;;;;;;14.13;100.00;97545.09;5071491;28;20217;-83
2023/08/29 01:39:27;;;;;;;3.57;2.80;;;;;;;14.10;100.00;97549.84;5071145;28;20735;-83
2023/08/29 01:41:53;;;;;;;3.57;2.73;;;;;;;14.14;100.00;97545.94;5071565;28;20209;-83
2023/08/29 01:44:21;;;;;;;4.17;2.97;;;;;;;14.12;100.00;97543.41;5071440;28;20239;-83
2023/08/29 01:46:48;;;;;;;3.87;2.90;;;;;;;14.15;100.00;97542.28;5071490;28;20217;-83
2023/08/29 01:49:14;;;;;;;3.47;2.70;;;;;;;14.20;100.00;97537.44;5071135;28;20697;-84
2023/08/29 01:51:41;;;;;;;3.00;2.53;;;;;;;14.17;100.00;97535.03;5071622;28;20610;-83
2023/08/29 01:54:07;;;;;;;3.50;2.73;;;;;;;14.17;100.00;97527.06;5071441;28;20560;-83
2023/08/29 01:56:35;;;;;;;3.10;2.80;;;;;;;14.25;100.00;97527.22;5071379;28;20232;-83
2023/08/29 01:59:02;;;;;;;3.17;2.83;;;;;;;14.22;100.00;97533.66;5071136;28;20242;-83
2023/08/29 02:01:30;;;;;;;3.20;2.90;;;;;;;14.23;100.00;97531.84;5071109;28;20207;-83
2023/08/29 02:03:57;;;;;;;2.83;2.63;;;;;;;14.27;100.00;97531.41;5070994;28;20235;-83
2023/08/29 02:06:23;;;;;;;3.67;3.07;;;;;;;14.31;100.00;97527.47;5071064;28;20628;-83
2023/08/29 02:08:50;;;;;;;4.03;2.93;;;;;;;14.31;100.00;97523.97;5071274;28;20206;-83
2023/08/29 02:11:17;;;;;;;3.23;2.90;;;;;;;14.28;100.00;97532.22;5070561;28;20223;-83
2023/08/29 02:13:43;;;;;;;2.97;2.70;;;;;;;14.24;100.00;97515.72;5071015;28;20730;-83
2023/08/29 02:16:10;;;;;;;3.50;2.50;;;;;;;14.21;100.00;97520.50;5070966;28;20648;-83
2023/08/29 02:18:39;;;;;;;3.67;2.97;;;;;;;14.24;100.00;97513.06;5070952;28;20233;-83
2023/08/29 02:21:05;;;;;;;3.47;2.90;;;;;;;14.22;100.00;97506.22;5070990;28;20212;-83
2023/08/29 02:23:32;;;;;;;3.40;3.10;;;;;;;14.20;100.00;97514.34;5071152;28;20245;-83
2023/08/29 02:26:02;;;;;;;3.30;3.00;;;;;;;14.26;100.00;97512.94;5071232;28;20589;-84
2023/08/29 02:28:29;;;;;;;3.23;2.93;;;;;;;14.28;100.00;97506.50;5071037;28;20288;-83
2023/08/29 02:30:55;;;;;;;3.47;3.00;;;;;;;14.26;100.00;97502.31;5070615;28;20213;-83
2023/08/29 02:33:22;;;;;;;3.13;2.83;;;;;;;14.24;100.00;97498.97;5070895;28;20239;-83
2023/08/29 02:35:50;;;;;;;3.47;3.17;;;;;;;14.32;100.00;97501.72;5070904;28;20279;-85
2023/08/29 02:38:16;;;;;;;3.77;2.83;;;;;;;14.32;100.00;97499.06;5070741;28;20206;-83
2023/08/29 02:40:43;;;;;;;4.60;3.13;;;;;;;14.34;100.00;97505.06;5070621;28;20217;-83
2023/08/29 02:43:09;;;;;;;3.23;2.80;;;;;;;14.34;100.00;97497.09;5070737;28;20234;-83
2023/08/29 02:45:36;;;;;;;2.80;2.60;;;;;;;14.30;100.00;97501.88;5070616;28;20206;-83
2023/08/29 02:48:02;;;;;;;2.90;2.70;;;;;;;14.31;100.00;97500.06;5070670;28;20218;-84
2023/08/29 02:50:29;;;;;;;2.93;2.57;;;;;;;14.36;100.00;97493.31;5070576;28;20363;-83
2023/08/29 02:52:57;;;;;;;4.10;2.63;;;;;;;14.45;100.00;97491.59;5070800;28;20214;-84
2023/08/29 02:55:23;;;;;;;3.33;2.83;;;;;;;14.40;100.00;97480.56;5070754;28;20681;-83
2023/08/29 02:57:50;;;;;;;3.23;2.93;;;;;;;14.42;100.00;97482.09;5070587;28;20707;-84
2023/08/29 03:00:18;;;;;;;2.93;2.70;;;;;;;14.50;100.00;97489.34;5070190;28;20261;-83
2023/08/29 03:02:44;;;;;;;3.10;2.80;;;;;;;14.47;100.00;97479.84;5070842;28;20222;-83
2023/08/29 03:05:11;;;;;;;2.90;2.70;;;;;;;14.51;100.00;97488.38;5070660;28;20230;-83
2023/08/29 03:07:38;;;;;;;2.93;2.60;;;;;;;14.49;100.00;97482.38;5070752;28;20203;-83
2023/08/29 03:10:07;;;;;;;2.80;2.60;;;;;;;14.44;100.00;97487.28;5070328;28;20207;-83
2023/08/29 03:12:33;;;;;;;2.57;2.37;;;;;;;14.41;100.00;97490.22;5070450;28;20230;-83
2023/08/29 03:14:59;;;;;;;3.10;2.47;;;;;;;14.41;100.00;97490.22;5070340;28;20230;-83
2023/08/29 03:17:26;;;;;;;3.20;2.80;;;;;;;14.40;100.00;97496.50;5070547;28;20657;-84
2023/08/29 03:19:52;;;;;;;3.53;2.90;;;;;;;14.36;100.00;97481.84;5070233;28;20238;-83
2023/08/29 03:22:19;;;;;;;3.50;3.13;;;;;;;14.37;100.00;97483.53;5070510;28;20218;-83
2023/08/29 03:24:46;;;;;;;4.37;3.80;;;;;;;14.36;100.00;97479.19;5073577;28;20238;-82
2023/08/29 03:27:14;;;;;;;5.03;3.87;;;;;;;14.30;100.00;97482.44;5074016;28;20236;-83
2023/08/29 03:29:41;;;;;;;4.13;3.43;;;;;;;14.28;100.00;97484.38;5073792;28;20211;-83
2023/08/29 03:32:07;;;;;;;6.10;4.40;;;;;;;14.21;100.00;97484.13;5074253;28;20559;-84
2023/08/29 03:34:34;;;;;;;5.63;4.10;;;;;;;14.24;100.00;97473.19;5078798;22;20258;-85
2023/08/29 03:37:00;;;;;;;4.90;3.73;;;;;;;14.26;100.00;97475.72;5054089;28;20208;-85
2023/08/29 03:39:28;;;;;;;5.50;4.20;;;;;;;14.26;100.00;97468.59;5053709;28;20317;-85
2023/08/29 03:41:54;;;;;;;4.63;3.87;;;;;;;14.24;100.00;97477.69;5054112;28;20210;-85
2023/08/29 03:44:23;;;;;;;4.53;4.07;;;;;;;14.18;100.00;97467.59;5054111;28;20246;-85
2023/08/29 03:46:50;;;;;;;4.77;3.97;;;;;;;14.19;100.00;97467.47;5054304;28;20215;-85
2023/08/29 03:49:16;;;;;;;5.10;4.60;;;;;;;14.19;100.00;97464.00;5054071;28;20207;-85
2023/08/29 03:51:43;;;;;;;6.67;5.00;;;;;;;14.18;100.00;97464.94;5053776;28;20211;-87
2023/08/29 03:54:09;;;;;;;7.93;4.97;;;;;;;14.19;100.00;97464.81;5053945;28;20230;-84
2023/08/29 03:56:36;;;;;;;7.37;5.00;;;;;;;14.12;100.00;97462.88;5054013;28;20284;-86
2023/08/29 03:59:04;;;;;;;5.70;4.70;;;;;;;14.14;100.00;97476.84;5053773;28;20234;-84
2023/08/29 04:01:31;;;;;;;8.23;5.33;;;;;;;14.13;100.00;97464.53;5054004;28;20217;-84
2023/08/29 04:03:58;;;;;;;7.40;5.27;;;;;;;14.12;100.00;97469.00;5053927;28;20231;-84
2023/08/29 04:06:25;;;;;;;6.70;5.43;;;;;;;14.08;100.00;97467.63;5053545;28;20860;-84
2023/08/29 04:08:52;;;;;;;7.83;5.83;;;;;;;14.06;100.00;97469.56;5053506;28;20408;-84
2023/08/29 04:11:19;;;;;;;9.67;6.03;;;;;;;14.05;100.00;97473.22;5053365;28;20317;-85
2023/08/29 04:13:45;;;;;;;8.70;7.10;;;;;;;14.10;100.00;97465.66;5053528;28;20231;-84
2023/08/29 04:16:12;;;;;;;8.00;7.10;;;;;;;14.10;100.00;97472.78;5053762;28;20696;-84
2023/08/29 04:18:40;;;;;;;7.93;7.10;;;;;;;14.07;100.00;97471.28;5053524;28;20209;-84
2023/08/29 04:21:06;;;;;;;8.57;7.10;;;;;;;14.12;100.00;97470.84;5053223;28;20211;-87
2023/08/29 04:23:33;;;;;;;8.37;7.20;;;;;;;14.11;100.00;97470.00;5053513;28;20210;-86
2023/08/29 04:26:00;;;;;;;10.73;8.33;;;;;;;14.08;100.00;97472.09;5053515;28;20213;-85
2023/08/29 04:28:26;;;;;;;10.93;8.57;;;;;;;14.13;100.00;97472.50;5053477;28;20213;-85
2023/08/29 04:30:54;;;;;;;11.90;8.10;;;;;;;14.13;100.00;97461.88;5052948;28;20682;-85
2023/08/29 04:33:20;;;;;;;10.23;8.50;;;;;;;14.18;100.00;97467.59;5052854;28;20211;-84
2023/08/29 04:35:51;;;;;;;13.70;9.60;;;;;;;14.11;100.00;97471.81;5052613;28;20225;-84
2023/08/29 04:38:17;;;;;;;11.50;9.10;;;;;;;14.16;100.00;97469.56;5053157;28;20205;-84
2023/08/29 04:40:44;;;;;;;10.17;8.33;;;;;;;14.14;100.00;97467.06;5052971;28;20237;-85
2023/08/29 04:43:10;;;;;;;11.73;9.50;;;;;;;14.13;100.00;97469.84;5053058;28;20215;-84
2023/08/29 04:45:36;;;;;;;11.00;9.10;;;;;;;14.12;100.00;97473.50;5052856;28;20228;-85
2023/08/29 04:48:03;;;;;;;10.40;9.30;;;;;;;14.13;100.00;97475.16;5053031;28;20210;-85
2023/08/29 04:50:30;;;;;;;12.03;9.60;;;;;;;14.12;100.00;97473.50;5052549;28;20574;-84
2023/08/29 04:52:58;;;;;;;12.63;9.07;;;;;;;14.11;100.00;97477.97;5052930;28;20211;-84
2023/08/29 04:55:25;;;;;;;11.80;9.17;;;;;;;14.15;100.00;97473.19;5052615;28;20245;-84
2023/08/29 04:57:54;;;;;;;11.90;9.57;;;;;;;14.10;100.00;97470.13;5052431;28;20222;-85
2023/08/29 05:00:21;;;;;;;10.80;9.00;;;;;;;14.10;100.00;97475.44;5052147;28;20276;-85
2023/08/29 05:02:47;;;;;;;11.83;9.17;;;;;;;14.11;100.00;97469.16;5052384;28;20214;-85
2023/08/29 05:05:14;;;;;;;11.17;9.23;;;;;;;14.12;100.00;97468.19;5052316;28;20239;-85
2023/08/29 05:07:41;;;;;;;11.57;9.13;;;;;;;14.14;100.00;97460.91;5052610;28;20205;-85
2023/08/29 05:10:08;;;;;;;13.60;9.93;;;;;;;14.06;100.00;97468.75;5052290;28;20209;-85
2023/08/29 05:12:34;;;;;;;11.90;9.13;;;;;;;14.06;100.00;97455.47;5052396;28;20275;-85
2023/08/29 05:15:01;;;;;;;10.27;9.00;;;;;;;14.12;100.00;97462.88;5052430;28;20725;-85
2023/08/29 05:17:27;;;;;;;10.03;9.03;;;;;;;14.16;100.00;97461.56;5052126;28;20207;-84
2023/08/29 05:19:55;;;;;;;11.30;8.40;;;;;;;14.15;100.00;97471.38;5051971;28;20257;-84
2023/08/29 05:22:22;;;;;;;11.03;8.97;;;;;;;14.20;100.00;97469.19;5052502;28;20217;-84
2023/08/29 05:24:48;;;;;;;10.50;8.67;;;;;;;14.25;100.00;97466.06;5052274;28;20229;-84
2023/08/29 05:27:16;;;;;;;11.50;8.93;;;;;;;14.22;100.00;97463.69;5051976;28;20226;-85
2023/08/29 05:29:43;;;;;;;12.37;9.30;;;;;;;14.21;100.00;97462.88;5051825;28;20202;-84
2023/08/29 05:32:10;;;;;;;11.60;9.17;;;;;;;14.25;100.00;97468.72;5051932;28;20208;-85
2023/08/29 05:34:37;;;;;;;11.47;9.60;;;;;;;14.27;100.00;97474.72;5051777;28;20234;-84
2023/08/29 05:37:04;;;;;;;10.53;8.93;;;;;;;14.30;100.00;97469.97;5052169;28;20210;-84
2023/08/29 05:39:31;;;;;;;9.97;8.57;;;;;;;14.26;100.00;97475.72;5051712;28;20229;-85
2023/08/29 05:41:57;;;;;;;9.70;8.67;;;;;;;14.23;100.00;97470.72;5051764;28;20219;-85
2023/08/29 05:44:25;;;;;;;12.97;10.13;;;;;;;14.16;100.00;97470.41;5051913;28;20574;-85
2023/08/29 05:46:52;;;;;;;10.30;8.57;;;;;;;14.25;100.00;97474.88;5050996;28;20213;-85
2023/08/29 05:49:18;;;;;;;10.60;8.70;;;;;;;14.22;100.00;97479.63;5051300;28;20211;-85
2023/08/29 05:51:45;;;;;;;9.67;8.10;;;;;;;14.28;100.00;97479.06;5051686;28;20210;-86
2023/08/29 05:54:11;;;;;;;10.43;8.53;;;;;;;14.32;100.00;97470.69;5051527;28;20803;-85
2023/08/29 05:56:38;;;;;;;12.40;9.00;;;;;;;14.31;100.00;97478.78;5051417;28;20687;-85
2023/08/29 05:59:05;;;;;;;9.47;8.53;;;;;;;14.34;100.00;97484.66;5054523;28;20222;-81
2023/08/29 06:01:35;;;;;;;11.57;9.20;;;;;;;14.27;100.00;97477.38;5051564;28;20227;-79
2023/08/29 06:04:02;;;;;;;11.80;8.97;;;;;;;14.41;100.00;97488.41;5051392;28;20653;-80
2023/08/29 06:06:28;;;;;;;11.30;8.40;;;;;;;14.34;100.00;97487.31;5051671;28;20273;-80
2023/08/29 06:08:55;;;;;;;9.37;8.37;;;;;;;14.34;100.00;97484.66;5051452;28;20225;-81
2023/08/29 06:11:21;;;;;;;10.13;8.93;;;;;;;14.30;100.00;97490.41;5050961;28;20206;-80
2023/08/29 06:13:48;;;;;;;9.57;8.10;;;;;;;14.34;100.00;97499.75;5051114;28;20231;-80
2023/08/29 06:16:14;;;;;;;9.40;8.37;;;;;;;14.38;100.00;97502.00;5051391;28;20218;-81
2023/08/29 06:18:43;;;;;;;10.13;9.00;;;;;;;14.32;100.00;97505.25;5051291;28;20697;-80
2023/08/29 06:21:09;;;;;;;9.67;8.67;;;;;;;14.37;100.00;97521.56;5051106;28;20231;-80
2023/08/29 06:23:36;;;;;;;10.47;8.60;;;;;;;14.40;100.00;97509.81;5051295;28;20230;-78
2023/08/29 06:26:02;;;;;;;9.67;8.67;;;;;;;14.29;100.00;97507.34;5051460;28;20215;-80
2023/08/29 06:28:29;;;;;;;9.97;8.47;;;;;;;14.30;100.00;97503.69;5051303;28;20562;-79
2023/08/29 06:30:56;;;;;;;9.23;7.97;;;;;;;14.26;100.00;97513.78;5050996;28;20211;-79
2023/08/29 06:33:22;;;;;;;11.83;8.30;;;;;;;14.19;100.00;97519.81;5051405;28;20218;-79
2023/08/29 06:35:50;;;;;;;10.20;8.37;;;;;;;14.14;100.00;97514.03;5050956;28;20305;-80
2023/08/29 06:38:17;;;;;;;10.80;8.07;;;;;;;14.08;100.00;97522.59;5051061;28;20233;-80
2023/08/29 06:40:43;;;;;;;11.80;8.60;;;;;;;14.05;100.00;97528.19;5051015;28;20230;-83
2023/08/29 06:43:10;;;;;;;9.87;8.70;;;;;;;14.01;100.00;97521.47;5050771;28;20224;-82
2023/08/29 06:45:36;;;;;;;11.17;8.70;;;;;;;13.95;100.00;97524.69;5051027;28;20231;-82
2023/08/29 06:48:03;;;;;;;10.63;9.13;;;;;;;13.93;100.00;97526.66;5051100;28;20217;-83
2023/08/29 06:50:30;;;;;;;11.37;9.33;;;;;;;14.00;100.00;97535.75;5050943;28;20207;-85
2023/08/29 06:52:57;;;;;;;10.80;8.97;;;;;;;13.94;100.00;97541.63;5051041;28;20225;-85
2023/08/29 06:55:24;;;;;;;10.33;8.77;;;;;;;13.96;100.00;97545.81;5050870;28;20276;-85
2023/08/29 06:57:51;;;;;;;10.27;8.43;;;;;;;13.98;100.00;97537.69;5051103;28;20361;-85
2023/08/29 07:00:19;;;;;;;10.77;8.97;;;;;;;14.03;100.00;97543.41;5054729;28;20229;-86
2023/08/29 07:02:46;;;;;;;10.90;8.63;;;;;;;14.03;100.00;97538.97;5054806;28;20209;-86
2023/08/29 07:05:12;;;;;;;11.37;9.10;;;;;;;14.05;100.00;97538.81;5054550;28;20245;-85
2023/08/29 07:07:40;;;;;;;12.40;9.10;;;;;;;14.09;100.00;97542.84;5054564;28;20211;-83
2023/08/29 07:10:09;;;;;;;11.03;8.93;;;;;;;14.17;100.00;97541.16;5053986;28;20209;-84
2023/08/29 07:12:36;;;;;;;11.00;8.70;;;;;;;14.27;100.00;97544.69;5054469;28;20634;-83
2023/08/29 07:15:03;;;;;;;10.00;8.10;;;;;;;14.32;100.00;97545.09;5054666;28;20239;-83
2023/08/29 07:17:29;;;;;;;11.90;9.33;;;;;;;14.43;100.00;97541.44;5054137;28;20217;-84
2023/08/29 07:19:56;;;;;;;11.10;8.53;;;;;;;14.47;100.00;97546.31;5054126;28;20215;-86
2023/08/29 07:22:23;;;;;;;8.30;7.40;;;;;;;14.38;100.00;97549.00;5057727;28;20211;-85
2023/08/29 07:24:49;;;;;;;9.57;8.20;;;;;;;14.33;100.00;97551.25;5054485;28;20245;-81
2023/08/29 07:27:17;;;;;;;11.13;8.03;;;;;;;14.35;100.00;97554.63;5059331;28;20700;-81
2023/08/29 07:29:44;;;;;;;9.73;8.03;;;;;;;14.38;100.00;97559.63;5074504;28;20287;-81
2023/08/29 07:32:11;;;;;;;8.33;7.50;;;;;;;14.31;100.00;97559.34;5073051;28;20209;-81
2023/08/29 07:34:39;;;;;;;9.37;8.13;;;;;;;14.29;100.00;97565.81;5072760;28;20241;-80
2023/08/29 07:37:06;;;;;;;8.93;8.03;;;;;;;14.24;100.00;97563.56;5073392;28;20225;-84
2023/08/29 07:39:32;;;;;;;10.00;7.93;;;;;;;14.24;100.00;97566.22;5073547;28;20209;-86
2023/08/29 07:42:00;;;;;;;11.33;8.00;;;;;;;14.29;100.00;97565.81;5074149;28;20715;-83
2023/08/29 07:44:28;;;;;;;11.30;8.17;;;;;;;14.24;100.00;97568.06;5073879;28;20233;-83
2023/08/29 07:46:54;;;;;;;9.07;7.87;;;;;;;14.24;100.00;97571.53;5073931;28;20205;-82
2023/08/29 07:49:21;;;;;;;10.50;8.93;;;;;;;14.20;100.00;97582.59;5073674;28;20590;-82
2023/08/29 07:51:50;;;;;;;14.10;9.37;;;;;;;14.21;100.00;97590.44;5073975;28;20249;-83
2023/08/29 07:54:17;;;;;;;10.70;9.27;;;;;;;14.15;100.00;97590.13;5073630;28;20233;-84
2023/08/29 07:56:43;;;;;;;12.10;9.70;;;;;;;14.12;100.00;97591.25;5074267;28;20206;-83
2023/08/29 07:59:10;;;;;;;11.47;8.70;;;;;;;14.21;100.00;97585.13;5073544;28;20695;-83
2023/08/29 08:01:38;;;;;;;13.73;10.67;;;;;;;14.29;100.00;97587.91;5074192;28;20232;-83
2023/08/29 08:04:05;;;;;;;14.00;10.10;;;;;;;14.34;100.00;97584.81;5073942;28;20234;-83
2023/08/29 08:06:31;;;;;;;12.37;10.53;;;;;;;14.29;100.00;97584.44;5073730;28;20273;-83
2023/08/29 08:08:58;;;;;;;11.73;10.00;;;;;;;14.24;100.00;97581.34;5073099;28;20221;-82
2023/08/29 08:11:24;;;;;;;13.87;10.50;;;;;;;14.17;100.00;97581.03;5073164;28;20683;-82
2023/08/29 08:13:51;;;;;;;11.63;10.43;;;;;;;14.21;100.00;97586.94;5073485;28;20627;-82
2023/08/29 08:16:18;;;;;;;14.03;11.00;;;;;;;14.23;100.00;97579.69;5073397;28;20346;-82
2023/08/29 08:18:45;;;;;;;12.73;11.00;;;;;;;14.29;100.00;97581.78;5073604;28;20211;-81
2023/08/29 08:21:12;;;;;;;14.50;11.30;;;;;;;14.33;100.00;97580.50;5073495;28;20229;-80
2023/08/29 08:23:38;;;;;;;13.77;10.80;;;;;;;14.28;100.00;97596.88;5073518;28;20233;-82
2023/08/29 08:26:05;;;;;;;12.47;10.60;;;;;;;14.32;100.00;97587.63;5073245;28;20207;-81
2023/08/29 08:28:31;;;;;;;11.77;10.27;;;;;;;14.30;100.00;97583.44;5064282;28;20207;-82
2023/08/29 08:30:58;;;;;;;12.47;10.80;;;;;;;14.31;100.00;97593.09;5053009;28;20206;-86
2023/08/29 08:33:25;;;;;;;15.00;12.07;;;;;;;14.28;100.00;97586.25;5053179;28;20581;-82
2023/08/29 08:35:53;;;;;;;13.47;11.00;;;;;;;14.21;100.00;97598.41;5053523;28;20214;-81
2023/08/29 08:38:20;;;;;;;14.50;11.37;;;;;;;14.18;100.00;97603.16;5052979;28;20217;-85
2023/08/29 08:40:46;;;;;;;15.70;11.83;;;;;;;14.22;100.00;97591.25;5052964;28;20261;-84
2023/08/29 08:43:14;;;;;;;13.23;11.13;;;;;;;14.23;100.00;97600.94;5053089;28;20218;-80
2023/08/29 08:45:41;;;;;;;13.47;11.80;;;;;;;14.31;100.00;97601.06;5052734;28;20206;-81
2023/08/29 08:48:07;;;;;;;13.37;11.33;;;;;;;14.30;100.00;97589.59;5053125;28;20212;-81
2023/08/29 08:50:35;;;;;;;12.93;11.43;;;;;;;14.33;100.00;97593.78;5053042;28;20210;-81
2023/08/29 08:53:04;;;;;;;12.97;11.40;;;;;;;14.43;100.00;97595.44;5053261;28;20205;-81
2023/08/29 08:55:31;;;;;;;11.43;10.23;;;;;;;14.40;100.00;97597.53;5052957;28;20241;-81
2023/08/29 08:57:58;;;;;;;13.43;11.17;;;;;;;14.38;100.00;97591.53;5053081;28;20302;-81
2023/08/29 09:00:25;;;;;;;14.57;12.00;;;;;;;14.30;100.00;97599.41;5052481;28;20211;-80
2023/08/29 09:02:52;;;;;;;15.93;11.30;;;;;;;14.31;100.00;97603.72;5052658;28;20257;-80
2023/08/29 09:05:19;;;;;;;13.70;11.33;;;;;;;14.35;100.00;97597.16;5052586;28;20256;-80
2023/08/29 09:07:45;;;;;;;13.90;11.33;;;;;;;14.34;100.00;97606.09;5052649;28;20214;-80
2023/08/29 09:10:15;;;;;;;14.03;11.60;;;;;;;14.34;100.00;97604.28;5051360;28;20210;-80
2023/08/29 09:12:49;;;;;;;14.60;12.23;;;;;;;14.34;100.00;97606.94;5052063;28;20677;-80
2023/08/29 09:15:17;;;;;;;15.10;11.10;;;;;;;14.30;100.00;97600.22;5050534;28;20238;-80
2023/08/29 09:17:49;;;;;;;14.90;12.33;;;;;;;14.32;100.00;97590.31;5052496;28;20302;-80
2023/08/29 09:20:16;;;;;;;17.07;13.37;;;;;;;14.40;100.00;97586.91;5051398;28;20789;-80
2023/08/29 09:22:43;;;;;;;18.43;13.87;;;;;;;14.45;100.00;97603.28;5050629;28;20249;-78
2023/08/29 09:25:11;;;;;;;16.30;12.70;;;;;;;14.43;100.00;97600.75;5050884;28;20234;-78
2023/08/29 09:27:44;;;;;;;16.53;12.90;;;;;;;14.45;100.00;97597.97;5051439;28;20260;-79
2023/08/29 09:30:12;;;;;;;14.83;12.60;;;;;;;14.41;100.00;97601.88;5051554;28;20214;-80
2023/08/29 09:32:42;;;;;;;15.87;12.27;;;;;;;14.40;100.00;97603.72;5051559;28;20661;-80
2023/08/29 09:35:11;;;;;;;15.20;11.97;;;;;;;14.33;100.00;97609.72;5070089;22;20691;-80
2023/08/29 09:37:42;;;;;;;15.40;11.73;;;;;;;14.28;100.00;97607.50;5070607;28;20308;-78
2023/08/29 09:40:10;;;;;;;14.90;12.57;;;;;;;14.36;100.00;97606.81;5070911;28;20212;-78
2023/08/29 09:42:36;;;;;;;16.20;13.33;;;;;;;14.37;100.00;97616.44;5070573;28;20302;-78
2023/08/29 09:45:08;;;;;;;18.93;14.23;;;;;;;14.42;100.00;97611.56;5070697;28;20226;-78
2023/08/29 09:47:35;;;;;;;15.40;13.07;;;;;;;14.42;100.00;97606.22;5070994;28;20559;-78
2023/08/29 09:50:03;;;;;;;16.53;13.73;;;;;;;14.42;100.00;97611.56;5070507;28;20907;-78
2023/08/29 09:52:29;;;;;;;15.43;13.13;;;;;;;14.45;100.00;97608.59;5070413;28;20303;-78
2023/08/29 09:54:57;;;;;;;16.33;13.13;;;;;;;14.42;100.00;97619.53;5070710;28;20229;-78
2023/08/29 09:57:31;;;;;;;14.83;11.90;;;;;;;14.41;100.00;97607.19;5070659;28;20673;-76
2023/08/29 09:59:58;;;;;;;15.20;12.73;;;;;;;14.47;100.00;97604.81;5070583;28;20214;-76
2023/08/29 10:02:30;;;;;;;18.10;14.00;;;;;;;14.54;100.00;97602.44;5070278;28;20605;-76
2023/08/29 10:05:05;;;;;;;17.23;13.73;;;;;;;14.66;100.00;97607.44;5070504;28;20237;-76
2023/08/29 10:07:38;;;;;;;18.23;14.00;;;;;;;14.85;100.00;97603.91;5070580;28;20240;-79
2023/08/29 10:10:07;;;;;;;20.67;14.40;;;;;;;15.06;100.00;97601.84;5070138;28;20203;-78
2023/08/29 10:12:34;;;;;;;15.13;12.93;;;;;;;15.21;100.00;97597.72;5070460;28;20212;-77
2023/08/29 10:15:01;;;;;;;15.20;12.27;;;;;;;15.33;100.00;97607.22;5070723;28;20226;-78
2023/08/29 10:17:31;;;;;;;15.53;12.90;;;;;;;15.37;100.00;97608.59;5070365;28;20233;-79
2023/08/29 10:19:58;;;;;;;14.00;11.73;;;;;;;15.46;100.00;97615.72;5070099;28;20664;-77
2023/08/29 10:22:29;;;;;;;15.50;12.63;;;;;;;15.48;100.00;97614.56;5070308;28;20226;-79
2023/08/29 10:24:57;;;;;;;13.87;12.37;;;;;;;15.52;100.00;97617.78;5070311;28;20227;-76
2023/08/29 10:27:24;;;;;;;11.60;10.40;;;;;;;15.46;100.00;97613.88;5070566;28;20203;-77
2023/08/29 10:29:50;;;;;;;11.17;9.90;;;;;;;15.36;100.00;97614.91;5069196;28;20226;-76
2023/08/29 10:32:17;;;;;;;10.60;9.30;;;;;;;15.27;100.00;97610.44;5068860;28;20918;-79
2023/08/29 10:34:45;;;;;;;12.10;10.73;;;;;;;15.26;100.00;97611.41;5071587;28;20207;-77
2023/08/29 10:37:17;;;;;;;13.00;11.43;;;;;;;15.28;100.00;97614.78;5071640;28;20220;-77
2023/08/29 10:39:44;;;;;;;12.43;10.87;;;;;;;15.21;100.00;97613.69;5073767;28;20211;-76
2023/08/29 10:42:14;;;;;;;11.37;10.27;;;;;;;15.07;100.00;97612.34;5074084;28;20241;-75
2023/08/29 10:44:43;;;;;;;13.03;11.53;;;;;;;14.97;100.00;97611.53;5072092;28;20207;-75
2023/08/29 10:47:26;;;;;;;14.07;12.57;;;;;;;14.98;100.00;97615.88;5071544;28;20209;-76
2023/08/29 10:50:06;;;;;;;13.73;11.23;;;;;;;15.01;100.00;97606.75;5071076;28;20209;-76
2023/08/29 10:52:37;;;;;;;13.50;11.80;;;;;;;15.15;100.00;97608.97;5072519;28;20232;-78
2023/08/29 10:55:08;;;;;;;16.83;13.00;;;;;;;15.26;100.00;97604.28;5073878;28;20268;-76
2023/08/29 10:57:34;;;;;;;14.43;12.37;;;;;;;15.44;100.00;97604.34;5074595;28;20302;-76
2023/08/29 11:00:01;;;;;;;15.40;13.27;;;;;;;15.72;100.00;97600.69;5073659;28;20210;-76
2023/08/29 11:02:29;;;;;;;13.57;12.17;;;;;;;15.84;100.00;97602.13;5073387;28;21003;-77
2023/08/29 11:05:15;;;;;;;15.93;12.73;;;;;;;15.89;100.00;97597.19;5073646;28;20612;-77
2023/08/29 11:07:42;;;;;;;14.33;11.87;;;;;;;15.94;100.00;97586.94;5072737;28;20696;-79
2023/08/29 11:10:13;;;;;;;12.90;11.57;;;;;;;15.87;100.00;97585.81;5073485;28;20207;-77
2023/08/29 11:13:06;;;;;;;14.43;12.93;;;;;;;15.84;100.00;97588.81;5072316;28;20281;-76
2023/08/29 11:16:04;;;;;;;13.63;12.00;;;;;;;15.82;100.00;97582.81;5071153;28;20234;-76
2023/08/29 11:18:32;;;;;;;11.87;10.60;;;;;;;15.77;100.00;97585.09;5071004;28;20280;-76
2023/08/29 11:21:05;;;;;;;13.43;10.77;;;;;;;15.72;100.00;97590.03;5070633;28;20203;-76